Pagrindinis puslapis
METAR-TAF:

METAR-TAF

Oro uostai :

Batervortas, Malaizija

platuma: 05-27-58N, ilguma: 100-23-28E, Aukštis: 2 m

Dabartinis oras

Ataskaita buvo paskelbta 1 valandą ir 22 minutes, ne 21:00 UTC
Vėjas 3 kt nuo kintamojo kryptimis
Temperatūra 25°C
Drėgmė 94%
Slėgis 1010 hPa
Matomumas: 6000 m
Mažai debesys ne aukštis 1700 ft, Liūtiniai kamuoliniai debesys.

METAR: WMKB 122100Z VRB03KT 6000 FEW017CB 25/24 Q1010 NOSIG

Laikas: 06:22 (22:22 UTC)

Prognozė

Ataskaita buvo paskelbta 5 valandos ir 22 minutes, ne 17:00 UTC
Prognozė galioja nuo 12 metu 18 UTC su 13 metu 18 UTC
Vėjas 3 kt nuo kintamojo kryptimis
Matomumas: 7000 m
Mažai debesys ne aukštis 2400 ft
Tapsmas
nuo 13 metu 00 UTC su 13 metu 02 UTC
Vėjas 8 kt iš Pietvakarių
Matomumas: 9000 m
Mažai debesys ne aukštis 2000 ft
Laikinai
nuo 13 metu 09 UTC su 13 metu 13 UTC
Matomumas: 5000 m
Mažai debesys ne aukštis 1700 ft, Liūtiniai kamuoliniai debesys.
perkūnija, lietus

TAF: WMKB 121700Z 1218/1318 VRB03KT 7000 FEW024 BECMG 1300/1302 22008KT 9000 FEW020 TEMPO 1309/1313 5000 TSRA FEW017CB

Orai ataskaitas ir orų prognozės (METAR, TAF).

turimą stotys yra geltonos ir raudonos taškus žemėlapyje.

Perkelti pele per norėdami pamatyti stoties vardą.

Tada spustelėkite, norėdami matyti oro stebėjimo ir prognozės.

Norėdami pakeisti žemėlapį: spustelėkite ant žalios mygtukų su juodo kryžiaus žemyn,; žalią mygtuką su brūkšneliu, jei norite nutolinti; arba žalių rodyklių gretimoms žemėlapius.


METAR-TAF: